createdAt,value
2016-04-10T00:01:03.170Z,1007.11
2016-04-10T00:04:15.928Z,1007.05
2016-04-10T00:07:25.346Z,1007.09
2016-04-10T00:10:37.900Z,1007.09
2016-04-10T00:13:48.080Z,1007.11
2016-04-10T00:17:01.713Z,1007.07
2016-04-10T00:20:05.424Z,1007.01
2016-04-10T00:23:15.276Z,1006.99
2016-04-10T00:26:26.428Z,1006.95
2016-04-10T00:29:38.748Z,1007.03
2016-04-10T00:32:51.084Z,1007.05
2016-04-10T00:36:06.686Z,1006.99
2016-04-10T00:39:08.383Z,1007.07
2016-04-10T00:42:18.515Z,1007.11
2016-04-10T00:45:29.073Z,1007.07
2016-04-10T00:48:41.987Z,1007.09
2016-04-10T00:51:57.698Z,1007.11
2016-04-10T00:55:05.237Z,1007.15
2016-04-10T00:58:08.948Z,1007.17
2016-04-10T01:01:21.456Z,1007.09
2016-04-10T01:04:31.827Z,1007.19
2016-04-10T01:07:44.659Z,1007.15
2016-04-10T01:11:01.146Z,1007.23
2016-04-10T01:14:04.980Z,1007.17
2016-04-10T01:17:14.499Z,1007.19
2016-04-10T01:20:27.231Z,1007.15
2016-04-10T01:23:39.760Z,1007.31
2016-04-10T01:26:51.787Z,1007.39
2016-04-10T01:30:05.658Z,1007.27
2016-04-10T01:33:08.198Z,1007.19
2016-04-10T01:36:21.973Z,1007.23
2016-04-10T01:39:30.749Z,1007.21
2016-04-10T01:42:42.820Z,1007.25
2016-04-10T01:45:53.563Z,1007.29
2016-04-10T01:49:06.837Z,1007.25
2016-04-10T01:52:10.531Z,1007.31
2016-04-10T01:55:19.602Z,1007.39
2016-04-10T01:58:31.863Z,1007.41
2016-04-10T02:01:44.199Z,1007.41
2016-04-10T02:05:00.379Z,1007.35
2016-04-10T02:08:04.027Z,1007.31
2016-04-10T02:11:15.255Z,1007.47
2016-04-10T02:14:24.654Z,1007.43
2016-04-10T02:17:35.711Z,1007.51
2016-04-10T02:20:45.532Z,1007.55
2016-04-10T02:24:02.134Z,1007.63
2016-04-10T02:27:05.657Z,1007.59
2016-04-10T02:30:18.119Z,1007.59
2016-04-10T02:33:30.208Z,1007.59
2016-04-10T02:36:42.777Z,1007.61
2016-04-10T02:39:51.754Z,1007.57
2016-04-10T02:43:07.122Z,1007.59
2016-04-10T02:46:10.662Z,1007.59
2016-04-10T02:49:22.701Z,1007.63
2016-04-10T02:52:34.945Z,1007.63
2016-04-10T02:55:47.423Z,1007.59
2016-04-10T02:59:03.915Z,1007.73
2016-04-10T03:02:07.376Z,1007.73
2016-04-10T03:05:19.572Z,1007.73
2016-04-10T03:08:32.055Z,1007.67
2016-04-10T03:11:41.156Z,1007.75
2016-04-10T03:14:51.445Z,1007.73
2016-04-10T03:18:07.329Z,1007.71
2016-04-10T03:21:10.743Z,1007.77
2016-04-10T03:24:22.298Z,1007.71
2016-04-10T03:27:34.434Z,1007.77
2016-04-10T03:30:46.895Z,1007.81
2016-04-10T03:34:03.106Z,1007.87
2016-04-10T03:37:06.567Z,1007.85
2016-04-10T03:40:17.169Z,1007.87
2016-04-10T03:43:27.052Z,1007.91
2016-04-10T03:46:39.516Z,1007.91
2016-04-10T03:49:49.304Z,1007.97
2016-04-10T03:53:05.579Z,1007.91
2016-04-10T03:56:09.040Z,1007.91
2016-04-10T03:59:21.282Z,1008.06
2016-04-10T04:02:33.684Z,1008.02
2016-04-10T04:05:46.114Z,1008.1
2016-04-10T04:09:01.419Z,1008
2016-04-10T04:12:05.022Z,1008.06
2016-04-10T04:15:15.185Z,1008.1
2016-04-10T04:18:27.146Z,1008.12
2016-04-10T04:21:39.751Z,1008.06
2016-04-10T04:24:51.556Z,1008.14
2016-04-10T04:28:05.657Z,1008.12
2016-04-10T04:31:09.556Z,1008.18
2016-04-10T04:34:18.940Z,1008.16
2016-04-10T04:37:29.197Z,1008.28
2016-04-10T04:40:41.708Z,1008.34
2016-04-10T04:43:54.044Z,1008.24
2016-04-10T04:47:08.240Z,1008.36
2016-04-10T04:50:11.799Z,1008.38
2016-04-10T04:53:24.464Z,1008.43
2016-04-10T04:56:34.443Z,1008.43
2016-04-10T04:59:47.029Z,1008.56
2016-04-10T05:03:01.069Z,1008.54
2016-04-10T05:06:04.920Z,1008.64
2016-04-10T05:09:17.507Z,1008.54
2016-04-10T05:12:27.780Z,1008.56
2016-04-10T05:15:37.385Z,1008.6
2016-04-10T05:18:47.503Z,1008.52
2016-04-10T05:22:04.074Z,1008.6
2016-04-10T05:25:07.801Z,1008.66
2016-04-10T05:28:17.964Z,1008.58
2016-04-10T05:31:30.706Z,1008.64
2016-04-10T05:34:43.249Z,1008.7
2016-04-10T05:37:59.789Z,1008.76
2016-04-10T05:41:07.734Z,1008.9
2016-04-10T05:44:11.523Z,1008.76
2016-04-10T05:47:21.452Z,1008.84
2016-04-10T05:50:33.964Z,1008.82
2016-04-10T05:53:43.846Z,1008.86
2016-04-10T05:57:00.370Z,1008.86
2016-04-10T06:00:08.034Z,1008.9
2016-04-10T06:03:11.823Z,1008.96
2016-04-10T06:06:24.082Z,1008.98
2016-04-10T06:09:35.530Z,1008.98
2016-04-10T06:12:45.179Z,1008.92
2016-04-10T06:16:01.546Z,1009
2016-04-10T06:19:05.304Z,1009.06
2016-04-10T06:22:17.938Z,1008.96
2016-04-10T06:25:30.725Z,1009.04
2016-04-10T06:28:43.355Z,1009.1
2016-04-10T06:31:54.129Z,1009.24
2016-04-10T06:35:05.107Z,1009.14
2016-04-10T06:38:18.021Z,1009.2
2016-04-10T06:41:28.404Z,1009.14
2016-04-10T06:44:38.336Z,1009.2
2016-04-10T06:47:51.235Z,1009.26
2016-04-10T06:51:05.744Z,1009.26
2016-04-10T06:54:09.814Z,1009.22
2016-04-10T06:57:19.759Z,1009.26
2016-04-10T07:00:32.610Z,1009.16
2016-04-10T07:03:42.732Z,1009.32
2016-04-10T07:06:59.348Z,1009.32
2016-04-10T07:10:06.997Z,1009.4
2016-04-10T07:13:09.645Z,1009.46
2016-04-10T07:16:23.639Z,1009.42
2016-04-10T07:19:36.649Z,1009.52
2016-04-10T07:22:48.969Z,1009.6
2016-04-10T07:26:04.103Z,1009.56
2016-04-10T07:29:07.846Z,1009.68
2016-04-10T07:32:18.213Z,1009.62
2016-04-10T07:35:27.502Z,1009.56
2016-04-10T07:38:40.184Z,1009.62
2016-04-10T07:41:51.271Z,1009.7
2016-04-10T07:45:07.029Z,1009.7
2016-04-10T07:48:10.818Z,1009.76
2016-04-10T07:51:23.482Z,1009.74
2016-04-10T07:54:34.288Z,1009.7
2016-04-10T07:57:46.705Z,1009.78
2016-04-10T08:01:03.213Z,1009.78
2016-04-10T08:04:07.065Z,1009.89
2016-04-10T08:07:17.916Z,1009.85
2016-04-10T08:10:30.768Z,1009.85
2016-04-10T08:13:41.528Z,1009.95
2016-04-10T08:16:53.989Z,1009.97
2016-04-10T08:20:06.498Z,1010.03
2016-04-10T08:23:15.350Z,1009.95
2016-04-10T08:26:28.044Z,1010.09
2016-04-10T08:29:40.822Z,1010.15
2016-04-10T08:32:50.549Z,1010.09
2016-04-10T08:36:06.994Z,1010.15
2016-04-10T08:39:10.940Z,1010.13
2016-04-10T08:42:21.354Z,1010.11
2016-04-10T08:45:33.737Z,1010.21
2016-04-10T08:48:44.685Z,1010.15
2016-04-10T08:52:01.318Z,1010.07
2016-04-10T08:55:09.405Z,1010.23
2016-04-10T08:58:13.319Z,1010.21
2016-04-10T09:01:25.827Z,1010.15
2016-04-10T09:04:36.604Z,1010.25
2016-04-10T09:07:49.362Z,1010.25
2016-04-10T09:11:05.823Z,1010.33
2016-04-10T09:14:09.690Z,1010.33
2016-04-10T09:17:20.495Z,1010.35
2016-04-10T09:20:31.706Z,1010.35
2016-04-10T09:23:44.561Z,1010.33
2016-04-10T09:26:54.772Z,1010.55
2016-04-10T09:30:08.014Z,1010.43
2016-04-10T09:33:11.788Z,1010.47
2016-04-10T09:36:23.093Z,1010.47
2016-04-10T09:39:32.648Z,1010.63
2016-04-10T09:42:42.081Z,1010.61
2016-04-10T09:45:51.245Z,1010.57
2016-04-10T09:49:04.643Z,1010.61
2016-04-10T09:52:08.573Z,1010.71
2016-04-10T09:55:16.331Z,1010.55
2016-04-10T09:58:30.418Z,1010.65
2016-04-10T10:01:43.413Z,1010.71
2016-04-10T10:04:56.218Z,1010.67
2016-04-10T10:08:08.867Z,1010.69
2016-04-10T10:11:19.192Z,1010.71
2016-04-10T10:14:32.110Z,1010.71
2016-04-10T10:17:45.165Z,1010.75
2016-04-10T10:20:58.282Z,1010.91
2016-04-10T10:24:12.701Z,1010.85
2016-04-10T10:27:16.800Z,1010.93
2016-04-10T10:30:27.423Z,1011.05
2016-04-10T10:33:39.752Z,1010.95
2016-04-10T10:36:50.246Z,1011.17
2016-04-10T10:40:07.005Z,1011.13
2016-04-10T10:43:10.966Z,1011.09
2016-04-10T10:46:23.866Z,1011.19
2016-04-10T10:49:36.827Z,1011.21
2016-04-10T10:52:49.540Z,1011.17
2016-04-10T10:56:06.189Z,1011.21
2016-04-10T10:59:10.290Z,1011.17
2016-04-10T11:02:23.143Z,1011.35
2016-04-10T11:05:34.323Z,1011.13
2016-04-10T11:08:46.943Z,1011.25
2016-04-10T11:11:56.967Z,1011.17
2016-04-10T11:15:11.084Z,1011.25
2016-04-10T11:18:15.327Z,1011.15
2016-04-10T11:21:24.740Z,1011.17
2016-04-10T11:24:37.671Z,1011.29
2016-04-10T11:27:46.712Z,1011.25
2016-04-10T11:30:55.736Z,1011.27
2016-04-10T11:34:12.572Z,1011.37
2016-04-10T11:37:16.799Z,1011.29
2016-04-10T11:40:27.058Z,1011.23
2016-04-10T11:43:38.066Z,1011.27
2016-04-10T11:46:47.873Z,1011.29
2016-04-10T11:49:58.131Z,1011.33
2016-04-10T11:53:13.327Z,1011.27
2016-04-10T11:56:17.538Z,1011.29
2016-04-10T11:59:30.249Z,1011.39
2016-04-10T12:02:43.104Z,1011.43
2016-04-10T12:05:54.034Z,1011.45
2016-04-10T12:09:10.839Z,1011.61
2016-04-10T12:12:14.814Z,1011.59
2016-04-10T12:15:27.682Z,1011.53
2016-04-10T12:18:37.066Z,1011.49
2016-04-10T12:21:49.607Z,1011.47
2016-04-10T12:25:05.569Z,1011.51
2016-04-10T12:28:13.687Z,1011.55
2016-04-10T12:31:17.695Z,1011.59
2016-04-10T12:34:30.624Z,1011.53
2016-04-10T12:37:40.025Z,1011.51
2016-04-10T12:40:52.909Z,1011.57
2016-04-10T12:44:09.401Z,1011.55
2016-04-10T12:47:13.409Z,1011.55
2016-04-10T12:50:26.260Z,1011.53
2016-04-10T12:53:37.863Z,1011.47
2016-04-10T12:56:47.530Z,1011.47
2016-04-10T12:59:59.757Z,1011.53
2016-04-10T13:03:10.906Z,1011.39
2016-04-10T13:06:24.054Z,1011.39
2016-04-10T13:09:36.531Z,1011.49
2016-04-10T13:12:48.136Z,1011.49
2016-04-10T13:16:04.456Z,1011.45
2016-04-10T13:19:12.574Z,1011.47
2016-04-10T13:22:16.550Z,1011.55
2016-04-10T13:25:25.527Z,1011.63
2016-04-10T13:28:38.176Z,1011.61
2016-04-10T13:31:50.826Z,1011.63
2016-04-10T13:35:08.085Z,1011.59
2016-04-10T13:38:12.234Z,1011.55
2016-04-10T13:41:23.336Z,1011.39
2016-04-10T13:44:34.985Z,1011.39
2016-04-10T13:47:47.870Z,1011.39
2016-04-10T13:50:58.081Z,1011.45
2016-04-10T13:54:09.808Z,1011.41
2016-04-10T13:57:23.801Z,1011.33
2016-04-10T14:00:36.621Z,1011.41
2016-04-10T14:03:49.507Z,1011.41
2016-04-10T14:07:06.437Z,1011.35
2016-04-10T14:10:10.476Z,1011.41
2016-04-10T14:13:23.297Z,1011.35
2016-04-10T14:16:32.664Z,1011.33
2016-04-10T14:19:44.159Z,1011.39
2016-04-10T14:22:56.730Z,1011.41
2016-04-10T14:26:13.691Z,1011.41
2016-04-10T14:29:17.730Z,1011.37
2016-04-10T14:32:30.660Z,1011.41
2016-04-10T14:35:42.265Z,1011.43
2016-04-10T14:38:53.429Z,1011.45
2016-04-10T14:42:10.234Z,1011.29
2016-04-10T14:45:14.195Z,1011.39
2016-04-10T14:48:26.734Z,1011.31
2016-04-10T14:51:39.461Z,1011.27
2016-04-10T14:54:50.144Z,1011.39
2016-04-10T14:57:58.918Z,1011.49
2016-04-10T15:01:11.801Z,1011.35
2016-04-10T15:04:24.809Z,1011.31
2016-04-10T15:07:36.130Z,1011.33
2016-04-10T15:10:48.843Z,1011.41
2016-04-10T15:14:06.633Z,1011.33
2016-04-10T15:17:14.672Z,1011.23
2016-04-10T15:20:18.711Z,1011.37
2016-04-10T15:23:30.408Z,1011.45
2016-04-10T15:26:44.339Z,1011.35
2016-04-10T15:29:55.191Z,1011.39
2016-04-10T15:33:09.637Z,1011.29
2016-04-10T15:36:12.457Z,1011.39
2016-04-10T15:39:26.590Z,1011.39
2016-04-10T15:42:37.208Z,1011.49
2016-04-10T15:45:48.234Z,1011.39
2016-04-10T15:52:11.703Z,1011.35
2016-04-10T15:55:24.446Z,1011.41
2016-04-10T15:58:37.313Z,1011.51
2016-04-10T16:01:51.012Z,1011.53
2016-04-10T16:04:55.082Z,1011.63
2016-04-10T16:08:07.668Z,1011.47
2016-04-10T16:11:18.489Z,1011.51
2016-04-10T16:14:28.481Z,1011.57
2016-04-10T16:17:42.805Z,1011.63
2016-04-10T16:20:50.673Z,1011.57
2016-04-10T16:23:54.805Z,1011.53
2016-04-10T16:27:05.094Z,1011.39
2016-04-10T16:30:18.009Z,1011.53
2016-04-10T16:33:28.157Z,1011.47
2016-04-10T16:36:44.871Z,1011.53
2016-04-10T16:39:48.848Z,1011.51
2016-04-10T16:43:00.825Z,1011.57
2016-04-10T16:46:10.756Z,1011.51
2016-04-10T16:49:20.342Z,1011.63
2016-04-10T16:52:33.161Z,1011.55
2016-04-10T16:55:49.892Z,1011.55
2016-04-10T16:58:53.931Z,1011.63
2016-04-10T17:02:03.892Z,1011.57
2016-04-10T17:05:16.369Z,1011.78
2016-04-10T17:08:25.845Z,1011.7
2016-04-10T17:11:36.307Z,1011.74
2016-04-10T17:14:50.473Z,1011.74
2016-04-10T17:17:54.325Z,1011.63
2016-04-10T17:21:07.225Z,1011.68
2016-04-10T17:24:17.686Z,1011.63
2016-04-10T17:27:29.444Z,1011.74
2016-04-10T17:30:47.439Z,1011.61
2016-04-10T17:33:51.447Z,1011.82
2016-04-10T17:37:01.626Z,1011.78
2016-04-10T17:40:14.385Z,1011.72
2016-04-10T17:43:27.033Z,1011.86
2016-04-10T17:46:43.510Z,1011.82
2016-04-10T17:49:51.318Z,1011.74
2016-04-10T17:52:55.248Z,1011.8
2016-04-10T17:56:07.990Z,1011.88
2016-04-10T17:59:17.873Z,1012.02
2016-04-10T18:02:30.631Z,1011.94
2016-04-10T18:05:45.202Z,1011.9
2016-04-10T18:08:49.229Z,1011.98
2016-04-10T18:12:00.252Z,1011.98
2016-04-10T18:15:11.807Z,1011.96
2016-04-10T18:18:24.378Z,1011.86
2016-04-10T18:21:37.026Z,1011.92
2016-04-10T18:24:49.614Z,1012
2016-04-10T18:28:02.389Z,1011.9
2016-04-10T18:31:14.944Z,1012
2016-04-10T18:34:27.686Z,1011.94
2016-04-10T18:37:43.804Z,1011.96
2016-04-10T18:40:51.690Z,1011.94
2016-04-10T18:43:55.510Z,1012.08
2016-04-10T18:47:06.362Z,1011.96
2016-04-10T18:50:19.010Z,1012.02
2016-04-10T18:53:31.503Z,1012.02
2016-04-10T18:56:48.170Z,1012.06
2016-04-10T18:59:51.991Z,1012.14
2016-04-10T19:03:03.842Z,1012.1
2016-04-10T19:06:13.178Z,1012.1
2016-04-10T19:09:25.796Z,1012.08
2016-04-10T19:12:38.194Z,1012.14
2016-04-10T19:15:49.768Z,1012.2
2016-04-10T19:19:03.661Z,1012.26
2016-04-10T19:22:16.468Z,1012.18
2016-04-10T19:25:29.106Z,1012.1
2016-04-10T19:28:45.606Z,1012.1
2016-04-10T19:31:49.389Z,1012.12
2016-04-10T19:34:59.512Z,1012.16
2016-04-10T19:38:10.447Z,1012.18
2016-04-10T19:41:22.989Z,1012.06
2016-04-10T19:44:35.482Z,1012.08
2016-04-10T19:47:52.119Z,1012.14
2016-04-10T19:50:55.738Z,1012.04
2016-04-10T19:54:07.871Z,1012.1
2016-04-10T19:57:20.223Z,1012.12
2016-04-10T20:00:32.949Z,1012.08
2016-04-10T20:03:49.257Z,1012.14
2016-04-10T20:06:53.014Z,1012.16
2016-04-10T20:10:05.617Z,1012.14
2016-04-10T20:13:18.124Z,1012.2
2016-04-10T20:16:30.805Z,1012.12
2016-04-10T20:19:45.766Z,1012.2
2016-04-10T20:22:49.399Z,1012.24
2016-04-10T20:26:01.816Z,1012.16
2016-04-10T20:29:12.839Z,1012.24
2016-04-10T20:32:22.925Z,1012.22
2016-04-10T20:35:35.465Z,1012.26
2016-04-10T20:38:51.991Z,1012.32
2016-04-10T20:41:55.781Z,1012.38
2016-04-10T20:45:05.882Z,1012.44
2016-04-10T20:48:18.171Z,1012.48
2016-04-10T20:51:29.117Z,1012.46
2016-04-10T20:54:38.204Z,1012.52
2016-04-10T20:57:50.384Z,1012.54
2016-04-10T21:01:01.253Z,1012.64
2016-04-10T21:04:13.699Z,1012.52
2016-04-10T21:07:26.004Z,1012.58
2016-04-10T21:10:35.700Z,1012.48
2016-04-10T21:13:48.786Z,1012.54
2016-04-10T21:16:52.484Z,1012.5
2016-04-10T21:20:03.008Z,1012.62
2016-04-10T21:23:15.468Z,1012.62
2016-04-10T21:26:26.008Z,1012.62
2016-04-10T21:29:38.516Z,1012.54
2016-04-10T21:32:50.462Z,1012.6
2016-04-10T21:36:02.614Z,1012.52
2016-04-10T21:39:15.106Z,1012.48
2016-04-10T21:42:27.644Z,1012.5
2016-04-10T21:45:37.778Z,1012.56
2016-04-10T21:48:51.458Z,1012.5
2016-04-10T21:51:55.124Z,1012.52
2016-04-10T21:55:07.368Z,1012.56
2016-04-10T21:58:19.782Z,1012.5
2016-04-10T22:01:32.227Z,1012.56
2016-04-10T22:04:48.642Z,1012.44
2016-04-10T22:07:52.087Z,1012.4
2016-04-10T22:11:04.989Z,1012.48
2016-04-10T22:14:16.777Z,1012.44
2016-04-10T22:17:27.333Z,1012.52
2016-04-10T22:20:43.888Z,1012.52
2016-04-10T22:23:51.474Z,1012.5
2016-04-10T22:26:55.063Z,1012.62
2016-04-10T22:30:04.024Z,1012.6
2016-04-10T22:33:15.813Z,1012.64
2016-04-10T22:36:25.009Z,1012.58
2016-04-10T22:39:34.314Z,1012.56
2016-04-10T22:42:50.806Z,1012.6
2016-04-10T22:45:54.458Z,1012.7
2016-04-10T22:49:06.825Z,1012.56
2016-04-10T22:52:19.396Z,1012.68
2016-04-10T22:55:31.857Z,1012.84
2016-04-10T22:58:48.396Z,1012.7
2016-04-10T23:01:51.920Z,1012.74
2016-04-10T23:05:04.149Z,1012.7
2016-04-10T23:08:16.314Z,1012.76
2016-04-10T23:11:25.728Z,1012.72
2016-04-10T23:14:36.143Z,1012.62
2016-04-10T23:17:51.947Z,1012.62
2016-04-10T23:20:55.458Z,1012.64
2016-04-10T23:24:07.529Z,1012.68
2016-04-10T23:27:16.975Z,1012.76
2016-04-10T23:30:29.279Z,1012.7
2016-04-10T23:33:45.318Z,1012.74
2016-04-10T23:36:52.753Z,1012.66
2016-04-10T23:39:56.358Z,1012.72
2016-04-10T23:43:04.725Z,1012.68
2016-04-10T23:46:16.843Z,1012.68
2016-04-10T23:49:29.132Z,1012.68
2016-04-10T23:52:45.499Z,1012.68
2016-04-10T23:55:52.961Z,1012.6
2016-04-10T23:58:56.457Z,1012.56
